Time;durP1;ratioP1;P1;durP2;ratioP2;P2;SDS_P1;SDS_P2;PMS_P1;PMS_P2;Temp;Humidity;BMP_temperature;BMP_pressure;BME280_temperature;BME280_humidity;BME280_pressure;Samples;Min_cycle;Max_cycle;Signal;HPM_P1;HPM_P2
2022/09/13 00:01:12;;;;;;;11.90;10.10;;;;;;;7.70;94.53;97779.78;106139;1280;22680;-91
2022/09/13 00:03:41;;;;;;;13.10;10.10;;;;;;;7.66;94.63;97779.70;106169;1280;25242;-91
2022/09/13 00:06:12;;;;;;;11.30;10.30;;;;;;;7.63;95.05;97779.53;106265;1279;25208;-91
2022/09/13 00:08:41;;;;;;;13.50;10.70;;;;;;;7.62;94.99;97781.04;106165;1279;25254;-89
2022/09/13 00:11:38;;;;;;;13.50;12.10;;;;;;;7.65;94.90;97776.29;106077;1279;22703;-90
2022/09/13 00:14:06;;;;;;;12.00;11.00;;;;;;;7.65;94.94;97775.00;104994;1288;25363;-91
2022/09/13 00:16:34;;;;;;;14.70;11.40;;;;;;;7.63;95.36;97776.63;105000;1288;23317;-92
2022/09/13 00:19:02;;;;;;;14.30;12.60;;;;;;;7.65;94.89;97775.27;104941;1288;25388;-91
2022/09/13 00:21:30;;;;;;;18.80;15.00;;;;;;;7.70;94.79;97777.25;105002;1288;24084;-88
2022/09/13 00:23:58;;;;;;;13.40;12.00;;;;;;;7.77;95.01;97776.50;107730;1288;23266;-90
2022/09/13 00:26:28;;;;;;;15.20;12.40;;;;;;;7.75;94.92;97776.61;107682;1288;25255;-91
2022/09/13 00:28:57;;;;;;;22.50;15.50;;;;;;;7.75;94.81;97775.27;105071;1288;22816;-91
2022/09/13 00:31:27;;;;;;;23.00;16.10;;;;;;;7.73;95.13;97777.27;104984;1288;22839;-90
2022/09/13 00:33:58;;;;;;;23.10;17.70;;;;;;;7.70;94.98;97773.00;104957;1288;25963;-90
2022/09/13 00:36:27;;;;;;;20.90;18.10;;;;;;;7.76;95.28;97768.98;104974;1288;24304;-92
2022/09/13 00:38:55;;;;;;;26.00;14.90;;;;;;;7.86;95.33;97768.25;104951;1288;24272;-90
2022/09/13 00:41:23;;;;;;;26.10;19.90;;;;;;;7.91;95.18;97763.37;105062;1288;25227;-90
2022/09/13 00:43:54;;;;;;;25.30;21.60;;;;;;;7.94;95.20;97756.04;104964;1287;22779;-89
2022/09/13 00:46:44;;;;;;;23.20;20.50;;;;;;;7.98;95.33;97757.39;105073;1288;24053;-90
2022/09/13 00:49:23;;;;;;;19.70;17.30;;;;;;;8.04;95.17;97755.77;104966;1288;22737;-89
2022/09/13 00:51:58;;;;;;;18.00;16.20;;;;;;;8.06;95.00;97760.96;105805;1279;25396;-91
2022/09/13 00:54:33;;;;;;;19.10;17.30;;;;;;;7.96;95.01;97761.01;105887;1281;23941;-90
2022/09/13 00:57:03;;;;;;;29.80;21.50;;;;;;;7.86;95.72;97761.98;105907;1281;22574;-90
2022/09/13 00:59:46;;;;;;;24.30;22.00;;;;;;;7.82;96.35;97762.45;105974;1281;24288;-90
2022/09/13 01:02:14;;;;;;;22.90;20.80;;;;;;;7.77;96.58;97756.80;105824;1281;22548;-92
2022/09/13 01:04:43;;;;;;;21.80;19.80;;;;;;;7.72;96.98;97754.50;105802;1281;23904;-90
2022/09/13 01:07:15;;;;;;;17.50;15.90;;;;;;;7.70;96.79;97750.10;105751;1281;22555;-90
2022/09/13 01:09:47;;;;;;;19.50;16.90;;;;;;;7.72;96.24;97749.30;105856;1281;22579;-86
2022/09/13 01:12:30;;;;;;;21.60;19.40;;;;;;;7.71;96.24;97744.94;105807;1281;22538;-88
2022/09/13 01:15:03;;;;;;;21.90;19.80;;;;;;;7.72;96.38;97748.16;105839;1281;23637;-90
2022/09/13 01:17:32;;;;;;;20.00;18.00;;;;;;;7.69;96.13;97750.77;105817;1281;22544;-90
2022/09/13 01:20:03;;;;;;;19.30;17.60;;;;;;;7.66;96.55;97754.55;105951;1281;22543;-89
2022/09/13 01:23:12;;;;;;;18.70;16.80;;;;;;;7.64;97.16;97753.81;105931;1281;24772;-91
2022/09/13 01:26:16;;;;;;;20.90;17.70;;;;;;;7.63;96.93;97759.73;106066;1280;22695;-88
2022/09/13 01:28:57;;;;;;;19.00;17.10;;;;;;;7.59;97.14;97760.61;105776;1281;22597;-90
2022/09/13 01:31:34;;;;;;;18.70;17.00;;;;;;;7.56;97.24;97760.61;105997;1280;22697;-92
2022/09/13 01:34:15;;;;;;;20.40;18.60;;;;;;;7.50;97.79;97761.55;106062;1280;22678;-91
2022/09/13 01:37:02;;;;;;;19.50;17.70;;;;;;;7.44;97.69;97754.44;106016;1279;22548;-90
2022/09/13 01:40:05;;;;;;;18.80;17.10;;;;;;;7.44;97.62;97757.80;106043;1280;22557;-90
2022/09/13 01:42:56;;;;;;;19.00;17.10;;;;;;;7.40;97.07;97752.53;105784;1281;22767;-90
2022/09/13 01:45:45;;;;;;;17.30;15.60;;;;;;;7.40;96.97;97750.50;105979;1281;23940;-92
2022/09/13 01:48:23;;;;;;;18.90;17.10;;;;;;;7.36;96.80;97747.85;106035;1281;22594;-87
2022/09/13 01:51:15;;;;;;;20.70;18.80;;;;;;;7.36;97.27;97750.21;106005;1281;25228;-89
2022/09/13 01:54:12;;;;;;;19.40;17.70;;;;;;;7.32;97.53;97747.52;105797;1281;23325;-91
2022/09/13 01:56:57;;;;;;;18.30;16.60;;;;;;;7.28;98.33;97739.93;105791;1281;25426;-90
2022/09/13 01:59:40;;;;;;;18.50;16.70;;;;;;;7.27;98.33;97738.06;106004;1280;22782;-88
2022/09/13 02:02:17;;;;;;;17.80;16.10;;;;;;;7.30;98.10;97734.39;105989;1280;22534;-90
2022/09/13 02:04:53;;;;;;;17.90;16.30;;;;;;;7.26;97.94;97735.87;105936;1280;25389;-90
2022/09/13 02:07:29;;;;;;;17.10;15.50;;;;;;;7.22;98.17;97728.55;105579;1281;24285;-90
2022/09/13 02:10:02;;;;;;;19.00;17.10;;;;;;;7.21;98.11;97729.10;105779;1281;22604;-90
2022/09/13 02:12:33;;;;;;;19.90;17.80;;;;;;;7.12;98.71;97730.73;105761;1281;22908;-89
2022/09/13 02:15:15;;;;;;;17.00;15.40;;;;;;;7.04;98.94;97728.50;105790;1281;22534;-88
2022/09/13 02:17:53;;;;;;;17.20;15.60;;;;;;;7.00;98.84;97730.77;106902;1281;22600;-88
2022/09/13 02:20:31;;;;;;;17.60;15.80;;;;;;;7.01;98.70;97731.25;108999;1279;22546;-87
2022/09/13 02:23:03;;;;;;;17.90;16.30;;;;;;;7.07;98.66;97724.13;107490;1280;22599;-89
2022/09/13 02:25:35;;;;;;;20.10;17.80;;;;;;;7.13;98.60;97720.23;105850;1281;23944;-89
2022/09/13 02:28:08;;;;;;;20.40;17.70;;;;;;;7.24;98.97;97718.63;105856;1281;25504;-89
2022/09/13 02:30:40;;;;;;;21.00;17.50;;;;;;;7.23;98.13;97717.67;105831;1281;22582;-89
2022/09/13 02:33:21;;;;;;;25.10;18.10;;;;;;;7.20;98.46;97711.14;105761;1281;25533;-91
2022/09/13 02:35:52;;;;;;;19.90;17.90;;;;;;;7.20;98.69;97711.90;105766;1281;22710;-91
2022/09/13 02:38:26;;;;;;;26.90;20.70;;;;;;;7.17;99.01;97709.20;105914;1280;22601;-90
2022/09/13 02:41:06;;;;;;;21.50;19.10;;;;;;;7.19;99.20;97713.74;105909;1279;22764;-89
2022/09/13 02:43:38;;;;;;;24.10;21.30;;;;;;;7.21;99.95;97710.47;105672;1281;24496;-90
2022/09/13 02:46:38;;;;;;;24.40;21.70;;;;;;;7.21;99.49;97709.65;105733;1280;22597;-89
2022/09/13 02:49:32;;;;;;;23.60;21.10;;;;;;;7.24;99.29;97702.66;105419;1281;25223;-89
2022/09/13 02:52:15;;;;;;;26.60;22.80;;;;;;;7.17;99.36;97701.16;105775;1281;22556;-89
2022/09/13 02:54:52;;;;;;;24.70;22.20;;;;;;;7.17;99.32;97701.10;105857;1281;22746;-90
2022/09/13 02:57:31;;;;;;;24.60;20.80;;;;;;;7.19;99.70;97694.50;105876;1281;22538;-89
2022/09/13 02:59:59;;;;;;;26.40;22.40;;;;;;;7.22;99.67;97693.52;105673;1280;24518;-90
2022/09/13 03:02:31;;;;;;;27.10;22.50;;;;;;;7.20;99.25;97688.48;105688;1281;24065;-90
2022/09/13 03:05:01;;;;;;;27.70;24.60;;;;;;;7.26;99.29;97691.29;105754;1281;25355;-90
2022/09/13 03:07:29;;;;;;;26.70;23.90;;;;;;;7.30;98.96;97696.34;105724;1281;25311;-90
2022/09/13 03:10:04;;;;;;;29.20;26.30;;;;;;;7.21;99.19;97690.89;105807;1281;25411;-90
2022/09/13 03:12:41;;;;;;;28.10;25.00;;;;;;;7.17;99.62;97692.33;105795;1281;25657;-90
2022/09/13 03:15:36;;;;;;;33.60;28.10;;;;;;;7.14;99.50;97685.02;105792;1281;22623;-90
2022/09/13 03:18:26;;;;;;;29.00;25.90;;;;;;;7.17;99.89;97684.88;105772;1281;25625;-89
2022/09/13 03:21:12;;;;;;;34.90;30.30;;;;;;;7.19;99.64;97687.59;105934;1281;22638;-89
2022/09/13 03:24:02;;;;;;;32.80;29.30;;;;;;;7.22;99.83;97684.93;105969;1280;22548;-90
2022/09/13 03:26:43;;;;;;;34.20;29.70;;;;;;;7.26;99.40;97685.16;105885;1280;22655;-88
2022/09/13 03:29:24;;;;;;;38.70;34.60;;;;;;;7.28;99.92;97682.46;105997;1281;24217;-89
2022/09/13 03:32:17;;;;;;;38.20;33.70;;;;;;;7.33;99.98;97675.84;105939;1281;22855;-89
2022/09/13 03:34:58;;;;;;;39.40;33.00;;;;;;;7.34;99.79;97673.95;105901;1279;22573;-89
2022/09/13 03:37:29;;;;;;;46.30;35.40;;;;;;;7.37;99.92;97671.20;105877;1279;22790;-89
2022/09/13 03:40:00;;;;;;;51.20;36.70;;;;;;;7.40;99.87;97669.77;105608;1281;24356;-90
2022/09/13 03:42:40;;;;;;;71.50;39.80;;;;;;;7.47;100.00;97666.95;105627;1280;22535;-90
2022/09/13 03:45:11;;;;;;;53.70;37.00;;;;;;;7.60;100.00;97667.73;105791;1279;22535;-90
2022/09/13 03:47:42;;;;;;;58.50;38.70;;;;;;;7.67;100.00;97666.15;105821;1279;22706;-89
2022/09/13 03:50:17;;;;;;;51.30;37.20;;;;;;;7.71;100.00;97670.40;105910;1279;22567;-89
2022/09/13 03:52:50;;;;;;;59.30;39.90;;;;;;;7.78;100.00;97665.60;106019;1279;24286;-88
2022/09/13 03:55:20;;;;;;;70.50;36.40;;;;;;;7.85;100.00;97663.86;105779;1280;22545;-89
2022/09/13 03:57:48;;;;;;;56.50;34.60;;;;;;;7.89;100.00;97659.84;105951;1279;25415;-90
2022/09/13 04:00:17;;;;;;;74.40;39.20;;;;;;;7.93;100.00;97663.77;105981;1280;23325;-89
2022/09/13 04:02:45;;;;;;;61.70;34.80;;;;;;;7.95;100.00;97659.08;105969;1279;24241;-89
2022/09/13 04:05:13;;;;;;;42.80;34.20;;;;;;;7.95;100.00;97655.86;105950;1279;22621;-89
2022/09/13 04:07:40;;;;;;;43.70;33.50;;;;;;;7.98;100.00;97656.72;105970;1279;22811;-89
2022/09/13 04:10:09;;;;;;;41.90;35.40;;;;;;;8.03;100.00;97651.61;105605;1281;22554;-88
2022/09/13 04:12:40;;;;;;;65.00;35.50;;;;;;;8.11;100.00;97644.97;106035;1279;22546;-86
2022/09/13 04:15:08;;;;;;;42.40;34.30;;;;;;;8.19;100.00;97648.94;107556;1279;22540;-89
2022/09/13 04:17:36;;;;;;;51.60;31.20;;;;;;;8.28;100.00;97651.61;108213;1279;22695;-88
2022/09/13 04:20:04;;;;;;;49.50;31.40;;;;;;;8.30;100.00;97653.46;106990;1279;22695;-89
2022/09/13 04:22:32;;;;;;;43.50;31.60;;;;;;;8.29;100.00;97656.59;105838;1279;22697;-89
2022/09/13 04:25:00;;;;;;;41.60;30.60;;;;;;;8.30;100.00;97652.55;105931;1280;22537;-89
2022/09/13 04:27:29;;;;;;;32.60;27.90;;;;;;;8.29;100.00;97656.33;105810;1279;25472;-89
2022/09/13 04:29:57;;;;;;;37.00;31.60;;;;;;;8.25;100.00;97655.05;105957;1280;25231;-89
2022/09/13 04:32:25;;;;;;;34.90;30.90;;;;;;;8.21;100.00;97651.75;105935;1279;22871;-89
2022/09/13 04:34:53;;;;;;;35.90;31.70;;;;;;;8.17;100.00;97642.73;105894;1280;25547;-90
2022/09/13 04:37:21;;;;;;;37.70;33.30;;;;;;;8.17;100.00;97647.40;106016;1280;25249;-90
2022/09/13 04:39:49;;;;;;;36.20;32.50;;;;;;;8.17;100.00;97648.43;106287;1279;25357;-88
2022/09/13 04:42:20;;;;;;;34.40;31.00;;;;;;;8.11;100.00;97647.93;106080;1279;24156;-88
2022/09/13 04:44:48;;;;;;;35.80;32.30;;;;;;;8.08;100.00;97648.06;106070;1279;22544;-88
2022/09/13 04:47:17;;;;;;;32.60;29.40;;;;;;;8.10;100.00;97650.39;106229;1279;25634;-86
2022/09/13 04:49:45;;;;;;;28.10;25.60;;;;;;;8.13;100.00;97653.05;106979;1279;23404;-90
2022/09/13 04:52:13;;;;;;;29.50;26.80;;;;;;;8.12;100.00;97657.31;108252;1279;22576;-87
2022/09/13 04:54:42;;;;;;;29.60;26.70;;;;;;;8.14;100.00;97656.20;108441;1279;22601;-89
2022/09/13 04:57:11;;;;;;;28.30;25.50;;;;;;;8.16;100.00;97656.87;108309;1279;22940;-87
2022/09/13 04:59:39;;;;;;;32.50;29.10;;;;;;;8.19;100.00;97657.15;108209;1279;22528;-91
2022/09/13 05:02:07;;;;;;;30.90;27.80;;;;;;;8.25;100.00;97653.87;106174;1279;25887;-90
2022/09/13 05:04:34;;;;;;;28.10;25.20;;;;;;;8.30;100.00;97654.70;106082;1279;24006;-89
2022/09/13 05:07:03;;;;;;;25.20;22.80;;;;;;;8.38;100.00;97658.14;106152;1279;24135;-89
2022/09/13 05:09:31;;;;;;;25.20;22.50;;;;;;;8.42;100.00;97659.34;106251;1279;22569;-90
2022/09/13 05:11:59;;;;;;;22.00;19.90;;;;;;;8.49;100.00;97657.95;105901;1280;23875;-90
2022/09/13 05:14:27;;;;;;;23.00;20.70;;;;;;;8.62;100.00;97660.08;105975;1279;22756;-91
2022/09/13 05:16:55;;;;;;;22.80;20.50;;;;;;;8.77;100.00;97661.77;105904;1279;22538;-89
2022/09/13 05:19:23;;;;;;;24.10;21.40;;;;;;;8.91;100.00;97661.20;105840;1279;22563;-90
2022/09/13 05:21:51;;;;;;;21.10;19.10;;;;;;;8.98;100.00;97657.10;105930;1281;22537;-87
2022/09/13 05:24:19;;;;;;;18.50;16.20;;;;;;;9.10;100.00;97658.08;105686;1282;22795;-90
2022/09/13 05:26:47;;;;;;;17.90;16.10;;;;;;;9.24;100.00;97660.36;105618;1279;26228;-89
2022/09/13 05:29:15;;;;;;;18.80;16.90;;;;;;;9.37;100.00;97660.14;105682;1280;22568;-90
2022/09/13 05:31:43;;;;;;;18.80;17.00;;;;;;;9.49;100.00;97660.13;105956;1280;22586;-90
2022/09/13 05:34:18;;;;;;;19.10;16.30;;;;;;;9.63;100.00;97661.28;105723;1281;24230;-89
2022/09/13 05:36:49;;;;;;;18.20;16.50;;;;;;;9.75;100.00;97666.71;106066;1281;25246;-89
2022/09/13 05:39:21;;;;;;;19.60;17.30;;;;;;;9.84;100.00;97666.11;105916;1279;24296;-89
2022/09/13 05:42:09;;;;;;;16.90;15.30;;;;;;;9.93;100.00;97668.50;105630;1282;22717;-90
2022/09/13 05:44:37;;;;;;;19.40;17.50;;;;;;;10.05;100.00;97664.98;105887;1280;22578;-88
2022/09/13 05:47:05;;;;;;;20.80;17.50;;;;;;;10.16;100.00;97666.27;105780;1279;25270;-87
2022/09/13 05:49:33;;;;;;;19.80;17.90;;;;;;;10.30;100.00;97671.21;105934;1281;22852;-90
2022/09/13 05:52:16;;;;;;;20.70;18.60;;;;;;;10.41;100.00;97672.60;105669;1281;22606;-90
2022/09/13 05:54:44;;;;;;;19.30;17.50;;;;;;;10.51;100.00;97673.20;105788;1281;24216;-91
2022/09/13 05:57:12;;;;;;;19.00;17.20;;;;;;;10.57;100.00;97676.16;105614;1282;22584;-88
2022/09/13 05:59:40;;;;;;;19.90;17.60;;;;;;;10.65;100.00;97668.35;105950;1280;24283;-89
2022/09/13 06:02:09;;;;;;;21.10;18.50;;;;;;;10.77;100.00;97670.02;105899;1280;22611;-90
2022/09/13 06:04:37;;;;;;;20.90;18.80;;;;;;;10.86;100.00;97671.14;105479;1282;22655;-90
2022/09/13 06:07:05;;;;;;;23.50;21.00;;;;;;;10.93;100.00;97670.61;105564;1281;24756;-90
2022/09/13 06:09:33;;;;;;;24.80;22.10;;;;;;;10.93;100.00;97670.93;105549;1282;22536;-89
2022/09/13 06:12:01;;;;;;;24.60;21.90;;;;;;;10.94;100.00;97668.49;105695;1281;22811;-87
2022/09/13 06:14:29;;;;;;;24.60;21.00;;;;;;;11.02;100.00;97662.21;108487;1280;25370;-88
2022/09/13 06:16:57;;;;;;;21.30;18.60;;;;;;;11.11;100.00;97663.92;108080;1280;22565;-89
2022/09/13 06:19:25;;;;;;;21.20;18.20;;;;;;;11.18;100.00;97664.29;105757;1281;25452;-87
2022/09/13 06:21:53;;;;;;;20.00;17.90;;;;;;;11.20;100.00;97662.63;105854;1281;22588;-86
2022/09/13 06:24:21;;;;;;;19.20;16.80;;;;;;;11.25;100.00;97657.31;105924;1281;24484;-87
2022/09/13 06:26:48;;;;;;;21.30;17.80;;;;;;;11.33;100.00;97655.27;105847;1279;22605;-89
2022/09/13 06:29:16;;;;;;;18.50;16.60;;;;;;;11.42;100.00;97661.41;105976;1281;24239;-91
2022/09/13 06:31:44;;;;;;;19.70;17.70;;;;;;;11.49;100.00;97662.67;105872;1281;24308;-90
2022/09/13 06:34:14;;;;;;;20.50;18.60;;;;;;;11.57;100.00;97660.15;106018;1281;22739;-90
2022/09/13 06:36:42;;;;;;;20.10;17.80;;;;;;;11.63;100.00;97666.08;105952;1280;23628;-90
2022/09/13 06:39:10;;;;;;;17.60;15.90;;;;;;;11.72;100.00;97661.30;105936;1279;22550;-89
2022/09/13 06:41:38;;;;;;;17.80;16.10;;;;;;;11.79;100.00;97660.83;105991;1281;22583;-91
2022/09/13 06:44:06;;;;;;;21.80;16.40;;;;;;;11.91;100.00;97661.58;105952;1281;24404;-89
2022/09/13 06:46:34;;;;;;;19.20;17.20;;;;;;;11.99;100.00;97661.48;105957;1281;23103;-89
2022/09/13 06:49:05;;;;;;;18.70;16.80;;;;;;;12.07;100.00;97667.94;105982;1281;25555;-91
2022/09/13 06:51:34;;;;;;;19.30;15.70;;;;;;;12.15;100.00;97667.39;105862;1280;22569;-90
2022/09/13 06:54:03;;;;;;;15.70;14.00;;;;;;;12.24;100.00;97668.94;105943;1281;22726;-89
2022/09/13 06:56:34;;;;;;;21.90;16.20;;;;;;;12.29;100.00;97668.66;105914;1281;22544;-89
2022/09/13 06:59:06;;;;;;;17.10;15.50;;;;;;;12.38;100.00;97664.16;105934;1281;22550;-91
2022/09/13 07:01:37;;;;;;;17.30;14.90;;;;;;;12.50;100.00;97663.39;106102;1281;25255;-87
2022/09/13 07:04:08;;;;;;;16.50;14.70;;;;;;;12.57;100.00;97665.80;105902;1281;22626;-90
2022/09/13 07:06:39;;;;;;;17.50;15.50;;;;;;;12.64;99.82;97668.89;106136;1281;25423;-90
2022/09/13 07:09:11;;;;;;;16.90;15.10;;;;;;;12.74;99.41;97666.54;105746;1281;24273;-91
2022/09/13 07:11:41;;;;;;;18.20;16.40;;;;;;;12.81;99.59;97667.70;106051;1281;24269;-91
2022/09/13 07:14:21;;;;;;;18.80;16.90;;;;;;;12.84;97.98;97669.40;106022;1281;24240;-89
2022/09/13 07:16:50;;;;;;;19.70;17.70;;;;;;;12.85;97.37;97666.73;106062;1281;22593;-89
2022/09/13 07:19:27;;;;;;;22.50;18.20;;;;;;;12.83;96.30;97663.48;106121;1281;25896;-90
2022/09/13 07:21:56;;;;;;;18.80;16.40;;;;;;;12.83;96.60;97665.02;106428;1281;25585;-89
2022/09/13 07:24:25;;;;;;;17.80;15.90;;;;;;;12.82;95.31;97660.43;106282;1281;23028;-90
2022/09/13 07:26:52;;;;;;;18.30;15.40;;;;;;;12.83;95.32;97656.46;106240;1280;22538;-91
2022/09/13 07:29:22;;;;;;;19.10;16.40;;;;;;;12.93;96.79;97654.02;105865;1281;22591;-90
2022/09/13 07:31:53;;;;;;;15.60;14.00;;;;;;;13.09;96.41;97655.41;106200;1281;25239;-90
2022/09/13 07:34:23;;;;;;;14.10;12.60;;;;;;;13.22;96.30;97649.95;106164;1281;22728;-89
2022/09/13 07:36:52;;;;;;;15.00;13.40;;;;;;;13.35;96.02;97655.16;106227;1281;22811;-91
2022/09/13 07:39:21;;;;;;;15.50;12.30;;;;;;;13.46;94.97;97653.61;105982;1281;22553;-91
2022/09/13 07:41:53;;;;;;;14.90;13.40;;;;;;;13.59;95.49;97654.84;106391;1281;25430;-91
2022/09/13 07:44:26;;;;;;;15.90;13.80;;;;;;;13.72;93.86;97661.39;106518;1281;22591;-92
2022/09/13 07:47:01;;;;;;;16.10;13.80;;;;;;;13.80;93.78;97659.86;106329;1282;22561;-90
2022/09/13 07:49:29;;;;;;;19.70;14.50;;;;;;;13.91;93.40;97654.09;106459;1279;22557;-90
2022/09/13 07:51:57;;;;;;;17.40;15.30;;;;;;;13.98;92.19;97647.90;106303;1281;22645;-91
2022/09/13 07:54:25;;;;;;;26.50;18.20;;;;;;;14.07;92.49;97644.55;106504;1280;25621;-90
2022/09/13 07:56:53;;;;;;;24.50;18.90;;;;;;;14.26;93.67;97651.90;106086;1281;22565;-93
2022/09/13 07:59:21;;;;;;;28.60;18.70;;;;;;;14.44;93.76;97650.83;106435;1281;22699;-91
2022/09/13 08:01:54;;;;;;;20.30;18.20;;;;;;;14.58;93.53;97650.74;106274;1280;22849;-92
2022/09/13 08:04:25;;;;;;;20.00;18.00;;;;;;;14.62;92.15;97648.23;106481;1281;22567;-92
2022/09/13 08:06:53;;;;;;;19.00;17.10;;;;;;;14.62;91.99;97645.22;107472;1279;22553;-90
2022/09/13 08:09:21;;;;;;;17.60;15.20;;;;;;;14.67;92.12;97643.95;109365;1280;22557;-89
2022/09/13 08:11:51;;;;;;;16.40;14.90;;;;;;;14.77;91.90;97641.31;108050;1280;24221;-92
2022/09/13 08:14:22;;;;;;;17.10;14.50;;;;;;;14.90;91.51;97637.55;106171;1281;22521;-89
2022/09/13 08:16:55;;;;;;;59.30;35.10;;;;;;;15.01;90.97;97636.78;106009;1282;23188;-89
2022/09/13 08:19:24;;;;;;;17.30;14.70;;;;;;;15.10;89.28;97636.35;106415;1279;23474;-90
2022/09/13 08:21:52;;;;;;;17.30;12.60;;;;;;;15.13;88.95;97631.95;106447;1279;22587;-90
2022/09/13 08:24:20;;;;;;;13.30;11.60;;;;;;;15.22;89.33;97625.49;106188;1280;25245;-90
2022/09/13 08:26:50;;;;;;;15.80;10.50;;;;;;;15.34;90.25;97622.05;106201;1279;24282;-91
2022/09/13 08:29:19;;;;;;;11.10;9.90;;;;;;;15.56;90.29;97624.39;106506;1279;24213;-90
2022/09/13 08:31:48;;;;;;;11.60;10.30;;;;;;;15.75;88.84;97628.39;106543;1280;25297;-92
2022/09/13 08:34:17;;;;;;;9.70;8.60;;;;;;;15.85;88.51;97626.37;106228;1280;25411;-91
2022/09/13 08:36:45;;;;;;;12.00;9.90;;;;;;;15.91;87.13;97623.78;106761;1279;22535;-91
2022/09/13 08:39:13;;;;;;;8.70;7.80;;;;;;;15.90;84.59;97629.27;106464;1279;25283;-91
2022/09/13 08:41:43;;;;;;;11.40;8.00;;;;;;;15.90;83.41;97630.95;106894;1279;22541;-91
2022/09/13 08:44:11;;;;;;;10.40;8.10;;;;;;;15.91;84.22;97621.67;107160;1280;23946;-91
2022/09/13 08:46:46;;;;;;;9.90;8.30;;;;;;;16.00;83.79;97621.77;107409;1279;24185;-91
2022/09/13 08:49:20;;;;;;;9.50;7.50;;;;;;;16.10;81.22;97619.63;107689;1279;22676;-92
2022/09/13 08:51:53;;;;;;;8.40;7.20;;;;;;;16.12;79.97;97620.63;107847;1279;23929;-90
2022/09/13 08:54:21;;;;;;;10.20;7.90;;;;;;;16.23;80.31;97623.52;107864;1279;22593;-91
2022/09/13 08:57:11;;;;;;;9.70;7.80;;;;;;;16.40;80.12;97617.58;107268;1279;24365;-91
2022/09/13 08:59:54;;;;;;;11.20;7.00;;;;;;;16.50;79.83;97614.61;107582;1279;24238;-90
2022/09/13 09:05:46;;;;;;;9.70;6.80;;;;;;;16.59;77.01;97616.73;107610;1281;22627;-92
2022/09/13 09:08:34;;;;;;;10.50;7.70;;;;;;;16.71;78.28;97613.13;107544;1280;22773;-90
2022/09/13 09:11:14;;;;;;;10.70;7.00;;;;;;;16.91;79.78;97609.57;107170;1281;22876;-92
2022/09/13 09:13:53;;;;;;;9.20;6.50;;;;;;;17.00;73.65;97612.59;107213;1281;22712;-91
2022/09/13 09:16:47;;;;;;;9.20;5.90;;;;;;;16.92;73.59;97607.58;107186;1281;22563;-90
2022/09/13 09:19:27;;;;;;;9.40;5.30;;;;;;;16.97;74.47;97606.63;106655;1281;22619;-90
2022/09/13 09:21:55;;;;;;;8.00;6.30;;;;;;;17.01;73.76;97604.86;106577;1280;24267;-92
2022/09/13 09:24:25;;;;;;;9.30;6.10;;;;;;;17.03;73.10;97604.77;106485;1281;22616;-92
2022/09/13 09:26:56;;;;;;;12.00;7.20;;;;;;;17.04;74.14;97600.28;106488;1281;22540;-91
2022/09/13 09:29:32;;;;;;;8.50;6.30;;;;;;;17.16;74.29;97602.28;106460;1281;24346;-90
2022/09/13 09:32:04;;;;;;;10.70;6.00;;;;;;;17.24;71.97;97602.80;106837;1279;22584;-90
2022/09/13 09:35:06;;;;;;;8.70;6.40;;;;;;;17.32;71.00;97603.94;107386;1279;22599;-90
2022/09/13 09:37:36;;;;;;;12.10;7.60;;;;;;;17.44;72.48;97594.91;107768;1280;25415;-92
2022/09/13 09:40:09;;;;;;;7.90;6.80;;;;;;;17.56;71.51;97595.05;107646;1280;22560;-90
2022/09/13 09:42:46;;;;;;;9.50;7.80;;;;;;;17.59;71.69;97591.64;107552;1280;23641;-92
2022/09/13 09:45:40;;;;;;;7.90;6.70;;;;;;;17.62;71.40;97585.95;106714;1280;24244;-91
2022/09/13 09:48:18;;;;;;;11.80;7.70;;;;;;;17.67;72.05;97585.59;106063;1287;22706;-92
2022/09/13 09:50:57;;;;;;;12.70;7.60;;;;;;;17.70;71.76;97583.95;105933;1288;23063;-91
2022/09/13 09:53:38;;;;;;;11.80;7.10;;;;;;;17.80;71.12;97585.54;106323;1287;22661;-92
2022/09/13 09:56:28;;;;;;;8.80;6.10;;;;;;;17.89;69.70;97587.23;104875;1287;1419981;-93
2022/09/13 09:58:56;;;;;;;8.10;5.50;;;;;;;17.96;68.21;97585.29;108298;1286;22577;-84
2022/09/13 10:01:36;;;;;;;7.10;5.40;;;;;;;17.99;68.05;97577.10;108550;1287;22926;-91
2022/09/13 10:04:25;;;;;;;9.10;5.20;;;;;;;18.10;67.98;97572.98;106360;1287;23138;-92
2022/09/13 10:07:25;;;;;;;10.20;5.10;;;;;;;18.03;66.29;97567.61;106610;1287;22759;-93
2022/09/13 10:10:02;;;;;;;9.60;4.70;;;;;;;18.03;66.69;97562.23;107294;1285;22589;-91
2022/09/13 10:12:33;;;;;;;7.40;4.90;;;;;;;18.05;65.78;97560.55;107340;1287;22629;-91
2022/09/13 10:18:16;;;;;;;7.60;4.50;;;;;;;18.28;67.13;97550.23;109042;1281;25254;-90
2022/09/13 10:21:16;;;;;;;9.70;4.60;;;;;;;18.43;67.38;97544.77;109211;1270;22671;-86
2022/09/13 10:23:46;;;;;;;6.80;4.00;;;;;;;18.56;65.40;97551.60;109463;1268;23823;-87
2022/09/13 10:26:24;;;;;;;8.10;4.30;;;;;;;18.66;63.59;97543.36;109316;1270;22619;-88
2022/09/13 10:29:02;;;;;;;5.20;3.60;;;;;;;18.64;64.27;97538.88;108478;1282;22655;-92
2022/09/13 10:31:35;;;;;;;5.30;4.20;;;;;;;18.57;63.36;97542.88;108824;1283;24320;-91
2022/09/13 10:34:19;;;;;;;6.20;3.80;;;;;;;18.56;62.85;97543.39;108624;1284;22911;-91
2022/09/13 10:36:58;;;;;;;5.90;4.50;;;;;;;18.52;62.56;97545.35;108640;1284;22731;-90
2022/09/13 10:39:30;;;;;;;6.40;4.50;;;;;;;18.54;63.28;97547.58;109030;1271;22651;-83
2022/09/13 10:42:00;;;;;;;5.50;4.40;;;;;;;18.59;63.24;97542.98;109171;1268;22789;-92
2022/09/13 10:44:43;;;;;;;6.30;3.90;;;;;;;18.69;63.33;97546.38;109373;1279;22484;-92
2022/09/13 10:47:43;;;;;;;7.40;4.20;;;;;;;18.81;62.09;97546.55;109417;1270;22539;-89
2022/09/13 10:50:26;;;;;;;6.90;3.90;;;;;;;18.88;60.32;97541.22;109368;1269;22558;31
2022/09/13 10:53:02;;;;;;;8.00;3.30;;;;;;;18.96;60.90;97537.30;109062;1269;22461;31
2022/09/13 10:55:42;;;;;;;5.00;3.30;;;;;;;19.08;60.18;97535.17;108332;1269;22389;31
2022/09/13 10:58:18;;;;;;;6.00;3.50;;;;;;;19.16;59.23;97534.30;109375;1269;23118;31
2022/09/13 11:17:12;;;;;;;4.20;3.10;;;;;;;19.39;57.33;97517.84;108694;1268;23110;31
2022/09/13 11:26:22;;;;;;;6.30;3.20;;;;;;;19.56;56.15;97505.29;108413;1269;23720;-88
2022/09/13 11:29:19;;;;;;;4.80;3.10;;;;;;;19.60;55.41;97505.80;109436;1269;22565;-88
2022/09/13 11:32:19;;;;;;;5.60;3.60;;;;;;;19.65;55.86;97499.98;109296;1269;22660;-93
2022/09/13 11:35:24;;;;;;;4.70;3.50;;;;;;;19.91;56.55;97491.93;109105;1280;22571;-91
2022/09/13 11:38:15;;;;;;;4.10;3.10;;;;;;;20.05;56.24;97489.70;108820;1280;22540;-89
2022/09/13 11:50:02;;;;;;;4.80;3.90;;;;;;;20.56;54.93;97467.73;108271;1269;22585;31
2022/09/13 11:55:35;;;;;;;5.00;3.30;;;;;;;21.06;55.00;97457.09;109141;1280;25268;-92
2022/09/13 11:58:10;;;;;;;5.60;3.70;;;;;;;21.41;53.62;97459.04;109269;1279;23313;-86
2022/09/13 12:00:49;;;;;;;4.00;3.40;;;;;;;21.44;51.83;97451.62;109518;1268;22548;-84
2022/09/13 12:06:21;;;;;;;5.40;3.70;;;;;;;21.44;49.66;97440.10;109326;1269;22488;-88
2022/09/13 12:12:06;;;;;;;9.30;3.60;;;;;;;21.44;50.95;97422.33;109082;1281;22830;-83
2022/09/13 12:14:59;;;;;;;5.20;3.30;;;;;;;21.42;50.99;97420.60;109028;1272;22550;-84
2022/09/13 12:20:34;;;;;;;5.50;3.40;;;;;;;21.12;50.43;97418.25;109536;1280;22577;-85
2022/09/13 12:25:56;;;;;;;4.00;3.50;;;;;;;21.27;50.91;97401.38;109528;1268;22504;31
2022/09/13 12:31:30;;;;;;;6.80;3.90;;;;;;;20.57;50.40;97400.63;109339;1270;22666;-86
2022/09/13 12:34:13;;;;;;;9.40;4.30;;;;;;;20.26;50.47;97397.34;109458;1269;22532;31
2022/09/13 12:37:07;;;;;;;5.40;3.60;;;;;;;19.98;51.47;97399.44;109277;1269;24017;31
2022/09/13 12:39:48;;;;;;;7.10;3.70;;;;;;;19.79;51.68;97401.39;109247;1271;22517;-81
2022/09/13 12:42:34;;;;;;;4.80;3.20;;;;;;;19.60;52.12;97399.33;109314;1282;22303;-81
2022/09/13 12:48:34;;;;;;;6.70;3.90;;;;;;;19.36;52.69;97390.78;109309;1270;22613;31